createdAt,value
2023-02-28T00:00:12.104Z,2.03
2023-02-28T00:00:44.274Z,2.06
2023-02-28T00:01:16.789Z,2.07
2023-02-28T00:01:48.468Z,2.04
2023-02-28T00:02:20.096Z,2.05
2023-02-28T00:02:51.973Z,2.07
2023-02-28T00:03:23.621Z,2.10
2023-02-28T00:03:55.278Z,2.08
2023-02-28T00:04:26.950Z,2.08
2023-02-28T00:05:04.328Z,2.08
2023-02-28T00:05:36.059Z,2.08
2023-02-28T00:06:10.518Z,2.07
2023-02-28T00:06:42.980Z,2.11
2023-02-28T00:07:14.635Z,2.11
2023-02-28T00:07:47.275Z,2.11
2023-02-28T00:08:18.898Z,2.09
2023-02-28T00:08:51.136Z,2.08
2023-02-28T00:09:22.803Z,2.08
2023-02-28T00:09:54.861Z,2.07
2023-02-28T00:10:30.153Z,2.06
2023-02-28T00:11:07.252Z,2.05
2023-02-28T00:11:38.965Z,2.03
2023-02-28T00:12:11.442Z,2.01
2023-02-28T00:12:43.098Z,2.02
2023-02-28T00:13:15.111Z,2.01
2023-02-28T00:13:48.377Z,2.03
2023-02-28T00:14:20.032Z,2.01
2023-02-28T00:14:52.002Z,1.99
2023-02-28T00:15:25.084Z,2.01
2023-02-28T00:16:05.039Z,2.03
2023-02-28T00:16:36.787Z,2.05
2023-02-28T00:17:08.460Z,2.06
2023-02-28T00:17:40.404Z,2.06
2023-02-28T00:18:12.793Z,2.07
2023-02-28T00:18:44.813Z,2.05
2023-02-28T00:19:16.467Z,2.07
2023-02-28T00:19:49.556Z,2.06
2023-02-28T00:20:21.824Z,2.05
2023-02-28T00:20:53.549Z,2.06
2023-02-28T00:21:25.351Z,2.05
2023-02-28T00:21:56.984Z,2.05
2023-02-28T00:22:29.068Z,2.07
2023-02-28T00:23:00.715Z,2.09
2023-02-28T00:23:33.431Z,2.08
2023-02-28T00:24:05.362Z,2.06
2023-02-28T00:24:37.000Z,2.07
2023-02-28T00:25:10.719Z,2.06
2023-02-28T00:25:42.363Z,2.07
2023-02-28T00:26:14.465Z,2.08
2023-02-28T00:26:46.140Z,2.05
2023-02-28T00:27:17.831Z,2.05
2023-02-28T00:27:50.143Z,2.07
2023-02-28T00:28:22.782Z,2.08
2023-02-28T00:28:54.397Z,2.09
2023-02-28T00:29:26.044Z,2.08
2023-02-28T00:29:57.707Z,2.09
2023-02-28T00:30:29.369Z,2.09
2023-02-28T00:31:01.277Z,2.13
2023-02-28T00:31:32.987Z,2.14
2023-02-28T00:32:06.051Z,2.13
2023-02-28T00:32:37.757Z,2.13
2023-02-28T00:33:09.557Z,2.14
2023-02-28T00:33:41.190Z,2.14
2023-02-28T00:34:12.823Z,2.12
2023-02-28T00:34:44.463Z,2.15
2023-02-28T00:35:16.472Z,2.16
2023-02-28T00:35:49.488Z,2.14
2023-02-28T00:36:21.205Z,2.18
2023-02-28T00:36:52.865Z,2.18
2023-02-28T00:37:25.140Z,2.19
2023-02-28T00:37:56.829Z,2.18
2023-02-28T00:38:28.480Z,2.22
2023-02-28T00:39:00.128Z,2.22
2023-02-28T00:39:31.779Z,2.19
2023-02-28T00:40:06.012Z,2.18
2023-02-28T00:40:37.654Z,2.12
2023-02-28T00:41:10.332Z,2.17
2023-02-28T00:41:41.982Z,2.17
2023-02-28T00:42:13.619Z,2.19
2023-02-28T00:42:45.306Z,2.17
2023-02-28T00:43:16.974Z,2.15
2023-02-28T00:43:48.638Z,2.16
2023-02-28T00:44:22.495Z,2.19
2023-02-28T00:44:54.149Z,2.18
2023-02-28T00:45:25.832Z,2.17
2023-02-28T00:45:57.519Z,2.17
2023-02-28T00:46:29.262Z,2.18
2023-02-28T00:47:01.906Z,2.18
2023-02-28T00:47:33.902Z,2.19
2023-02-28T00:48:05.835Z,2.18
2023-02-28T00:48:37.530Z,2.20
2023-02-28T00:49:09.295Z,2.17
2023-02-28T00:49:41.652Z,2.15
2023-02-28T00:50:13.441Z,2.16
2023-02-28T00:50:45.070Z,2.13
2023-02-28T00:51:16.768Z,2.15
2023-02-28T00:51:48.459Z,2.14
2023-02-28T00:52:20.122Z,2.13
2023-02-28T00:52:51.795Z,2.12
2023-02-28T00:53:23.613Z,2.14
2023-02-28T00:53:55.347Z,2.13
2023-02-28T00:54:27.218Z,2.14
2023-02-28T00:54:59.286Z,2.15
2023-02-28T00:55:30.949Z,2.12
2023-02-28T00:56:03.160Z,2.15
2023-02-28T00:56:34.818Z,2.15
2023-02-28T00:57:06.466Z,2.12
2023-02-28T00:57:38.233Z,2.13
2023-02-28T00:58:09.909Z,2.14
2023-02-28T00:58:41.558Z,2.14
2023-02-28T00:59:14.701Z,2.14
2023-02-28T00:59:46.433Z,2.16
2023-02-28T01:00:18.417Z,2.15
2023-02-28T01:00:50.342Z,2.11
2023-02-28T01:01:22.273Z,2.11
2023-02-28T01:01:54.055Z,2.07
2023-02-28T01:02:25.771Z,2.11
2023-02-28T01:02:57.455Z,2.11
2023-02-28T01:03:29.657Z,2.10
2023-02-28T01:04:01.529Z,2.11
2023-02-28T01:04:33.380Z,2.13
2023-02-28T01:05:05.789Z,2.17
2023-02-28T01:05:37.415Z,2.17
2023-02-28T01:06:09.069Z,2.15
2023-02-28T01:06:41.245Z,2.17
2023-02-28T01:07:13.033Z,2.14
2023-02-28T01:07:44.686Z,2.17
2023-02-28T01:08:16.358Z,2.16
2023-02-28T01:08:48.065Z,2.13
2023-02-28T01:09:19.762Z,2.15
2023-02-28T01:09:51.389Z,2.11
2023-02-28T01:10:23.024Z,2.14
2023-02-28T01:10:55.036Z,2.07
2023-02-28T01:11:27.258Z,2.05
2023-02-28T01:11:59.303Z,2.07
2023-02-28T01:12:31.106Z,2.06
2023-02-28T01:13:02.977Z,2.04
2023-02-28T01:13:34.614Z,2.07
2023-02-28T01:14:06.383Z,2.07
2023-02-28T01:14:38.482Z,2.07
2023-02-28T01:15:11.787Z,2.06
2023-02-28T01:15:50.118Z,2.05
2023-02-28T01:16:22.054Z,2.04
2023-02-28T01:16:53.760Z,2.05
2023-02-28T01:17:25.476Z,2.03
2023-02-28T01:17:57.129Z,2.02
2023-02-28T01:18:29.556Z,1.99
2023-02-28T01:19:01.269Z,2.01
2023-02-28T01:19:33.867Z,1.99
2023-02-28T01:20:05.952Z,1.98
2023-02-28T01:20:38.833Z,1.94
2023-02-28T01:21:14.867Z,1.94
2023-02-28T01:21:46.535Z,1.93
2023-02-28T01:22:18.148Z,1.93
2023-02-28T01:22:49.774Z,1.93
2023-02-28T01:23:24.465Z,1.96
2023-02-28T01:23:58.828Z,1.92
2023-02-28T01:24:30.549Z,1.91
2023-02-28T01:25:02.236Z,1.90
2023-02-28T01:25:38.742Z,1.89
2023-02-28T01:26:13.876Z,1.87
2023-02-28T01:26:45.720Z,1.88
2023-02-28T01:27:17.357Z,1.90
2023-02-28T01:27:49.011Z,1.88
2023-02-28T01:28:21.139Z,1.87
2023-02-28T01:28:54.300Z,1.87
2023-02-28T01:29:26.120Z,1.88
2023-02-28T01:29:57.768Z,1.90
2023-02-28T01:30:29.510Z,1.89
2023-02-28T01:31:01.304Z,1.88
2023-02-28T01:31:33.133Z,1.86
2023-02-28T01:32:05.042Z,1.85
2023-02-28T01:32:37.249Z,1.87
2023-02-28T01:33:08.878Z,1.85
2023-02-28T01:33:41.129Z,1.82
2023-02-28T01:34:13.349Z,1.84
2023-02-28T01:34:45.010Z,1.85
2023-02-28T01:35:16.683Z,1.85
2023-02-28T01:35:48.662Z,1.85
2023-02-28T01:36:23.589Z,1.84
2023-02-28T01:36:55.244Z,1.86
2023-02-28T01:37:26.997Z,1.82
2023-02-28T01:38:06.799Z,1.86
2023-02-28T01:38:44.874Z,1.86
2023-02-28T01:39:16.572Z,1.84
2023-02-28T01:39:48.215Z,1.82
2023-02-28T01:40:19.909Z,1.86
2023-02-28T01:40:52.021Z,1.87
2023-02-28T01:41:25.016Z,1.88
2023-02-28T01:41:56.681Z,1.85
2023-02-28T01:42:28.331Z,1.86
2023-02-28T01:43:00.056Z,1.87
2023-02-28T01:43:53.282Z,1.89
2023-02-28T01:45:02.162Z,1.92
2023-02-28T01:45:36.863Z,1.90
2023-02-28T01:46:08.589Z,1.89
2023-02-28T01:46:40.299Z,1.91
2023-02-28T01:47:12.163Z,1.92
2023-02-28T01:47:45.993Z,1.92
2023-02-28T01:48:19.697Z,1.92
2023-02-28T01:48:58.519Z,1.96
2023-02-28T01:49:30.536Z,1.98
2023-02-28T01:50:06.714Z,2.01
2023-02-28T01:50:42.567Z,1.99
2023-02-28T01:51:21.752Z,2.00
2023-02-28T01:51:57.396Z,2.00
2023-02-28T01:52:30.196Z,1.98
2023-02-28T01:53:05.521Z,2.02
2023-02-28T01:53:48.519Z,2.05
2023-02-28T01:54:30.759Z,2.00
2023-02-28T01:55:06.685Z,2.02
2023-02-28T01:55:41.817Z,2.00
2023-02-28T01:56:21.397Z,2.03
2023-02-28T01:57:02.985Z,2.04
2023-02-28T01:57:47.856Z,2.05
2023-02-28T01:58:19.712Z,2.04
2023-02-28T01:58:54.129Z,2.03
2023-02-28T01:59:36.291Z,2.04
2023-02-28T02:00:21.083Z,2.03
2023-02-28T02:00:53.149Z,2.05
2023-02-28T02:01:29.166Z,2.02
2023-02-28T02:02:02.807Z,2.03
2023-02-28T02:02:35.042Z,2.05
2023-02-28T02:03:11.894Z,2.01
2023-02-28T02:03:43.517Z,2.04
2023-02-28T02:04:15.197Z,2.04
2023-02-28T02:05:02.748Z,2.04
2023-02-28T02:05:35.327Z,2.03
2023-02-28T02:06:07.181Z,2.02
2023-02-28T02:06:44.455Z,2.03
2023-02-28T02:07:16.380Z,2.05
2023-02-28T02:07:53.364Z,2.07
2023-02-28T02:08:29.091Z,2.08
2023-02-28T02:09:00.770Z,2.06
2023-02-28T02:09:32.434Z,2.07
2023-02-28T02:10:17.687Z,2.09
2023-02-28T02:11:02.100Z,2.11
2023-02-28T02:11:35.828Z,2.10
2023-02-28T02:12:33.827Z,2.10
2023-02-28T02:13:29.150Z,2.08
2023-02-28T02:14:12.671Z,2.07
2023-02-28T02:15:09.214Z,2.11
2023-02-28T02:16:11.091Z,2.11
2023-02-28T02:17:04.344Z,2.10
2023-02-28T02:17:42.892Z,2.09
2023-02-28T02:18:41.760Z,2.09
2023-02-28T02:19:28.426Z,2.08
2023-02-28T02:20:17.372Z,2.09
2023-02-28T02:21:28.290Z,2.10
2023-02-28T02:22:16.169Z,2.08
2023-02-28T02:23:07.110Z,2.10
2023-02-28T02:24:00.262Z,2.07
2023-02-28T02:24:49.165Z,2.10
2023-02-28T02:25:59.436Z,2.10
2023-02-28T02:26:49.708Z,2.09
2023-02-28T02:27:58.391Z,2.07
2023-02-28T02:29:04.044Z,2.05
2023-02-28T02:30:01.253Z,2.08
2023-02-28T02:31:00.932Z,2.07
2023-02-28T02:32:15.010Z,2.10
2023-02-28T02:33:18.776Z,2.10
2023-02-28T02:33:50.358Z,2.07
2023-02-28T02:34:27.600Z,2.10
2023-02-28T02:35:16.173Z,2.09
2023-02-28T02:36:08.580Z,2.08
2023-02-28T02:36:50.281Z,2.07
2023-02-28T02:37:32.234Z,2.09
2023-02-28T02:38:15.868Z,2.12
2023-02-28T02:39:15.861Z,2.12
2023-02-28T02:40:09.065Z,2.12
2023-02-28T02:40:54.490Z,2.13
2023-02-28T02:41:41.756Z,2.17
2023-02-28T02:42:23.509Z,2.16
2023-02-28T02:43:19.494Z,2.19
2023-02-28T02:43:57.488Z,2.18
2023-02-28T02:44:39.692Z,2.16
2023-02-28T02:45:19.330Z,2.16
2023-02-28T02:46:00.771Z,2.13
2023-02-28T02:46:52.239Z,2.12
2023-02-28T02:47:29.508Z,2.05
2023-02-28T02:48:04.022Z,2.06
2023-02-28T02:48:40.199Z,2.07
2023-02-28T02:49:22.693Z,2.09
2023-02-28T02:49:58.408Z,2.06
2023-02-28T02:50:40.276Z,2.07
2023-02-28T02:51:17.346Z,2.07
2023-02-28T02:51:51.726Z,2.03
2023-02-28T02:52:32.486Z,2.03
2023-02-28T02:53:07.295Z,1.98
2023-02-28T02:53:50.272Z,2.02
2023-02-28T02:54:29.678Z,2.00
2023-02-28T02:55:04.674Z,1.97
2023-02-28T02:55:42.580Z,1.98
2023-02-28T02:56:16.633Z,2.01
2023-02-28T02:56:50.286Z,2.01
2023-02-28T02:57:33.625Z,1.99
2023-02-28T02:58:11.353Z,1.99
2023-02-28T02:58:45.959Z,1.97
2023-02-28T02:59:22.883Z,1.95
2023-02-28T02:59:57.390Z,1.97
2023-02-28T03:00:42.078Z,1.99
2023-02-28T03:01:26.131Z,1.97
2023-02-28T03:02:02.703Z,1.93
2023-02-28T03:02:37.183Z,1.93
2023-02-28T03:03:12.151Z,1.92
2023-02-28T03:03:45.227Z,1.92
2023-02-28T03:04:21.942Z,1.94
2023-02-28T03:05:01.654Z,1.95
2023-02-28T03:05:51.822Z,1.94
2023-02-28T03:06:23.544Z,1.95
2023-02-28T03:06:55.862Z,1.95
2023-02-28T03:07:28.521Z,1.96
2023-02-28T03:08:00.168Z,1.97
2023-02-28T03:08:36.805Z,1.95
2023-02-28T03:09:08.484Z,1.94
2023-02-28T03:09:40.168Z,1.94
2023-02-28T03:10:49.400Z,1.98
2023-02-28T03:11:21.627Z,1.94
2023-02-28T03:11:57.169Z,1.95
2023-02-28T03:12:42.270Z,1.97
2023-02-28T03:14:11.064Z,1.97
2023-02-28T03:15:05.125Z,1.98
2023-02-28T03:16:00.316Z,1.97
2023-02-28T03:16:59.427Z,1.95
2023-02-28T03:17:53.075Z,1.98
2023-02-28T03:18:24.662Z,1.97
2023-02-28T03:19:02.136Z,1.94
2023-02-28T03:20:05.127Z,1.93
2023-02-28T03:21:20.837Z,1.91
2023-02-28T03:22:15.315Z,1.90
2023-02-28T03:22:54.311Z,1.89
2023-02-28T03:23:43.511Z,1.85
2023-02-28T03:24:34.828Z,1.88
2023-02-28T03:25:27.603Z,1.88
2023-02-28T03:26:03.343Z,1.86
2023-02-28T03:26:52.386Z,1.85
2023-02-28T03:27:42.098Z,1.87
2023-02-28T03:28:23.609Z,1.84
2023-02-28T03:29:13.900Z,1.86
2023-02-28T03:29:52.895Z,1.84
2023-02-28T03:30:37.785Z,1.84
2023-02-28T03:31:37.391Z,1.86
2023-02-28T03:32:27.943Z,1.85
2023-02-28T03:33:09.310Z,1.85
2023-02-28T03:33:55.649Z,1.85
2023-02-28T03:34:35.055Z,1.83
2023-02-28T03:35:32.035Z,1.87
2023-02-28T03:36:11.122Z,1.85
2023-02-28T03:36:48.834Z,1.85
2023-02-28T03:37:24.844Z,1.82
2023-02-28T03:38:30.430Z,1.83
2023-02-28T03:39:09.856Z,1.84
2023-02-28T03:39:50.087Z,1.81
2023-02-28T03:40:28.874Z,1.77
2023-02-28T03:41:15.121Z,1.79
2023-02-28T03:41:58.128Z,1.78
2023-02-28T03:42:35.746Z,1.79
2023-02-28T03:43:15.976Z,1.78
2023-02-28T03:43:57.328Z,1.78
2023-02-28T03:44:36.622Z,1.81
2023-02-28T03:45:28.835Z,1.81
2023-02-28T03:46:07.081Z,1.80
2023-02-28T03:46:46.975Z,1.80
2023-02-28T03:47:44.274Z,1.80
2023-02-28T03:48:30.282Z,1.78
2023-02-28T03:49:12.358Z,1.77
2023-02-28T03:50:18.284Z,1.79
2023-02-28T03:50:59.570Z,1.77
2023-02-28T03:51:33.994Z,1.75
2023-02-28T03:52:09.292Z,1.76
2023-02-28T03:52:49.941Z,1.78
2023-02-28T03:53:26.596Z,1.79
2023-02-28T03:54:06.664Z,1.79
2023-02-28T03:54:53.510Z,1.77
2023-02-28T03:55:25.361Z,1.77
2023-02-28T03:56:07.204Z,1.81
2023-02-28T03:56:45.036Z,1.84
2023-02-28T03:57:28.546Z,1.85
2023-02-28T03:58:16.894Z,1.83
2023-02-28T03:59:16.251Z,1.81
2023-02-28T04:00:05.360Z,1.81
2023-02-28T04:00:46.693Z,1.77
2023-02-28T04:01:27.006Z,1.75
2023-02-28T04:01:59.487Z,1.75
2023-02-28T04:02:31.334Z,1.77
2023-02-28T04:03:03.578Z,1.77
2023-02-28T04:03:38.172Z,1.75
2023-02-28T04:04:12.280Z,1.74
2023-02-28T04:04:49.638Z,1.74
2023-02-28T04:05:22.749Z,1.75
2023-02-28T04:05:56.798Z,1.78
2023-02-28T04:06:28.746Z,1.78
2023-02-28T04:07:08.449Z,1.76
2023-02-28T04:07:40.097Z,1.74
2023-02-28T04:08:11.765Z,1.75
2023-02-28T04:08:43.680Z,1.76
2023-02-28T04:09:16.222Z,1.74
2023-02-28T04:09:47.912Z,1.76
2023-02-28T04:10:19.728Z,1.77
2023-02-28T04:11:02.599Z,1.72
2023-02-28T04:11:38.014Z,1.74
2023-02-28T04:12:10.006Z,1.75
2023-02-28T04:12:41.659Z,1.74
2023-02-28T04:13:13.332Z,1.74
2023-02-28T04:13:47.212Z,1.76
2023-02-28T04:14:19.620Z,1.75
2023-02-28T04:14:51.293Z,1.73
2023-02-28T04:15:24.218Z,1.71
2023-02-28T04:15:55.933Z,1.70
2023-02-28T04:16:35.132Z,1.71
2023-02-28T04:17:07.484Z,1.73
2023-02-28T04:17:39.165Z,1.73
2023-02-28T04:18:10.835Z,1.75
2023-02-28T04:18:44.146Z,1.75
2023-02-28T04:19:16.233Z,1.78
2023-02-28T04:19:47.975Z,1.82
2023-02-28T04:20:19.886Z,1.80
2023-02-28T04:20:52.340Z,1.82
2023-02-28T04:21:25.591Z,1.85
2023-02-28T04:21:58.292Z,1.86
2023-02-28T04:22:29.922Z,1.88
2023-02-28T04:23:01.562Z,1.89
2023-02-28T04:23:34.124Z,1.90
2023-02-28T04:24:06.905Z,1.90
2023-02-28T04:24:42.334Z,1.88
2023-02-28T04:25:13.991Z,1.92
2023-02-28T04:25:45.699Z,1.92
2023-02-28T04:26:17.344Z,1.93
2023-02-28T04:26:54.030Z,1.92
2023-02-28T04:27:25.766Z,1.92
2023-02-28T04:27:57.419Z,1.92
2023-02-28T04:28:29.040Z,1.96
2023-02-28T04:29:01.884Z,1.95
2023-02-28T04:29:33.594Z,1.97
2023-02-28T04:30:05.822Z,1.97
2023-02-28T04:30:39.263Z,1.97
2023-02-28T04:31:11.010Z,1.96
2023-02-28T04:31:42.709Z,1.97
2023-02-28T04:32:14.570Z,1.98
2023-02-28T04:32:46.410Z,1.97
2023-02-28T04:33:18.058Z,1.95
2023-02-28T04:33:49.735Z,1.94
2023-02-28T04:34:22.280Z,1.95
2023-02-28T04:34:53.908Z,1.97
2023-02-28T04:35:25.563Z,1.97
2023-02-28T04:36:05.897Z,1.96
2023-02-28T04:36:37.965Z,1.96
2023-02-28T04:37:13.692Z,1.98
2023-02-28T04:37:45.882Z,1.97
2023-02-28T04:38:17.525Z,2.00
2023-02-28T04:38:49.274Z,2.00
2023-02-28T04:39:22.017Z,1.98
2023-02-28T04:39:53.655Z,2.01
2023-02-28T04:40:25.313Z,2.02
2023-02-28T04:41:01.232Z,2.02
2023-02-28T04:41:33.448Z,1.99
2023-02-28T04:42:05.525Z,2.01
2023-02-28T04:42:37.265Z,2.03
2023-02-28T04:43:08.912Z,2.02
2023-02-28T04:43:40.672Z,2.03
2023-02-28T04:44:12.391Z,2.04
2023-02-28T04:44:44.028Z,2.06
2023-02-28T04:45:15.749Z,2.02
2023-02-28T04:45:47.421Z,2.02
2023-02-28T04:46:19.484Z,2.03
2023-02-28T04:46:51.317Z,2.05
2023-02-28T04:47:22.971Z,2.07
2023-02-28T04:47:54.669Z,2.08
2023-02-28T04:48:29.303Z,2.06
2023-02-28T04:49:00.998Z,2.01
2023-02-28T04:49:32.639Z,2.01
2023-02-28T04:50:04.736Z,2.00
2023-02-28T04:50:36.363Z,2.00
2023-02-28T04:51:14.095Z,2.00
2023-02-28T04:51:45.801Z,2.00
2023-02-28T04:52:17.513Z,1.97
2023-02-28T04:52:49.167Z,1.98
2023-02-28T04:53:21.402Z,1.98
2023-02-28T04:53:53.240Z,2.02
2023-02-28T04:54:25.507Z,2.00
2023-02-28T04:54:57.200Z,2.01
2023-02-28T04:55:28.826Z,1.99
2023-02-28T04:56:00.784Z,1.94
2023-02-28T04:56:32.444Z,1.93
2023-02-28T04:57:05.439Z,1.92
2023-02-28T04:57:37.183Z,1.92
2023-02-28T04:58:10.033Z,1.90
2023-02-28T04:58:42.522Z,1.89
2023-02-28T04:59:14.166Z,1.89
2023-02-28T04:59:45.788Z,1.89
2023-02-28T05:00:17.809Z,1.90
2023-02-28T05:00:49.799Z,1.89
2023-02-28T05:01:24.294Z,1.88
2023-02-28T05:01:55.970Z,1.90
2023-02-28T05:02:27.773Z,1.87
2023-02-28T05:02:59.466Z,1.85
2023-02-28T05:03:31.156Z,1.84
2023-02-28T05:04:05.529Z,1.84
2023-02-28T05:04:37.827Z,1.79
2023-02-28T05:05:09.736Z,1.75
2023-02-28T05:05:41.375Z,1.81
2023-02-28T05:06:14.391Z,1.82
2023-02-28T05:06:46.211Z,1.85
2023-02-28T05:07:17.905Z,1.84
2023-02-28T05:07:49.605Z,1.84
2023-02-28T05:08:21.245Z,1.86
2023-02-28T05:08:53.997Z,1.84
2023-02-28T05:09:25.666Z,1.86
2023-02-28T05:09:57.532Z,1.85
2023-02-28T05:10:29.270Z,1.87
2023-02-28T05:11:04.908Z,1.88
2023-02-28T05:11:36.955Z,1.86
2023-02-28T05:12:10.447Z,1.88
2023-02-28T05:12:42.203Z,1.84
2023-02-28T05:13:14.330Z,1.86
2023-02-28T05:13:47.024Z,1.85
2023-02-28T05:14:18.659Z,1.87
2023-02-28T05:14:50.316Z,1.88
2023-02-28T05:15:22.085Z,1.91
2023-02-28T05:15:54.135Z,1.92
2023-02-28T05:16:25.874Z,1.89
2023-02-28T05:16:57.558Z,1.88
2023-02-28T05:17:29.518Z,1.86
2023-02-28T05:18:01.168Z,1.87
2023-02-28T05:18:32.772Z,1.87
2023-02-28T05:19:04.590Z,1.88
2023-02-28T05:19:36.389Z,1.89
2023-02-28T05:20:15.746Z,1.88
2023-02-28T05:20:47.996Z,1.90
2023-02-28T05:21:32.032Z,1.88
2023-02-28T05:22:03.905Z,1.87
2023-02-28T05:22:35.645Z,1.85
2023-02-28T05:23:07.294Z,1.84
2023-02-28T05:23:38.919Z,1.85
2023-02-28T05:24:12.970Z,1.84
2023-02-28T05:24:44.661Z,1.86
2023-02-28T05:25:22.971Z,1.84
2023-02-28T05:25:55.140Z,1.82
2023-02-28T05:26:28.606Z,1.82
2023-02-28T05:27:00.585Z,1.81
2023-02-28T05:27:32.415Z,1.83
2023-02-28T05:28:04.203Z,1.84
2023-02-28T05:28:35.842Z,1.82
2023-02-28T05:29:08.121Z,1.81
2023-02-28T05:29:46.347Z,1.81
2023-02-28T05:30:18.459Z,1.79
2023-02-28T05:30:50.283Z,1.78
2023-02-28T05:31:22.114Z,1.75
2023-02-28T05:31:54.094Z,1.78
2023-02-28T05:32:25.926Z,1.77
2023-02-28T05:32:57.661Z,1.75
2023-02-28T05:33:29.305Z,1.76
2023-02-28T05:34:01.079Z,1.75
2023-02-28T05:34:32.749Z,1.74
2023-02-28T05:35:05.291Z,1.74
2023-02-28T05:35:40.238Z,1.70
2023-02-28T05:36:11.984Z,1.73
2023-02-28T05:36:44.194Z,1.72
2023-02-28T05:37:16.704Z,1.72
2023-02-28T05:37:48.327Z,1.70
2023-02-28T05:38:19.965Z,1.72
2023-02-28T05:38:52.924Z,1.72
2023-02-28T05:39:24.590Z,1.71
2023-02-28T05:39:56.213Z,1.71
2023-02-28T05:40:27.895Z,1.70
2023-02-28T05:40:59.800Z,1.71
2023-02-28T05:41:31.694Z,1.72
2023-02-28T05:42:03.633Z,1.71
2023-02-28T05:42:35.272Z,1.71
2023-02-28T05:43:07.090Z,1.71
2023-02-28T05:43:39.252Z,1.70
2023-02-28T05:44:11.336Z,1.69
2023-02-28T05:44:43.101Z,1.70
2023-02-28T05:45:15.847Z,1.69
2023-02-28T05:45:47.617Z,1.72
2023-02-28T05:46:19.278Z,1.72
2023-02-28T05:46:50.984Z,1.71
2023-02-28T05:47:22.633Z,1.72
2023-02-28T05:47:55.123Z,1.75
2023-02-28T05:48:27.073Z,1.75
2023-02-28T05:48:59.835Z,1.75
2023-02-28T05:49:31.490Z,1.77
2023-02-28T05:50:04.213Z,1.80
2023-02-28T05:50:35.911Z,1.80
2023-02-28T05:51:08.933Z,1.80
2023-02-28T05:51:41.080Z,1.82
2023-02-28T05:52:12.879Z,1.83
2023-02-28T05:52:44.519Z,1.82
2023-02-28T05:53:16.674Z,1.81
2023-02-28T05:53:49.293Z,1.81
2023-02-28T05:54:20.962Z,1.83
2023-02-28T05:54:52.626Z,1.84
2023-02-28T05:55:24.271Z,1.85
2023-02-28T05:55:56.131Z,1.81
2023-02-28T05:56:27.836Z,1.82
2023-02-28T05:56:59.472Z,1.80
2023-02-28T05:57:31.287Z,1.81
2023-02-28T05:58:02.930Z,1.77
2023-02-28T05:58:35.689Z,1.76
2023-02-28T05:59:07.691Z,1.78
2023-02-28T05:59:40.919Z,1.79
2023-02-28T06:00:13.225Z,1.78
2023-02-28T06:00:45.086Z,1.77
2023-02-28T06:01:38.466Z,1.77
2023-02-28T06:02:14.269Z,1.78
2023-02-28T06:02:46.003Z,1.77
2023-02-28T06:03:17.718Z,1.78
2023-02-28T06:03:49.423Z,1.79
2023-02-28T06:04:31.626Z,1.77
2023-02-28T06:05:03.917Z,1.76
2023-02-28T06:05:35.642Z,1.76
2023-02-28T06:06:07.316Z,1.76
2023-02-28T06:06:40.308Z,1.77
2023-02-28T06:07:12.362Z,1.76
2023-02-28T06:07:44.986Z,1.76
2023-02-28T06:08:16.705Z,1.74
2023-02-28T06:08:48.429Z,1.74
2023-02-28T06:09:20.331Z,1.73
2023-02-28T06:09:52.044Z,1.72
2023-02-28T06:10:23.726Z,1.73
2023-02-28T06:10:55.442Z,1.73
2023-02-28T06:11:28.851Z,1.71
2023-02-28T06:12:04.620Z,1.72
2023-02-28T06:12:36.335Z,1.69
2023-02-28T06:13:08.026Z,1.70
2023-02-28T06:13:40.055Z,1.70
2023-02-28T06:14:17.794Z,1.69
2023-02-28T06:14:49.441Z,1.70
2023-02-28T06:15:21.963Z,1.67
2023-02-28T06:15:53.670Z,1.70
2023-02-28T06:16:26.293Z,1.73
2023-02-28T06:16:59.215Z,1.69
2023-02-28T06:17:30.986Z,1.67
2023-02-28T06:18:02.850Z,1.66
2023-02-28T06:18:34.577Z,1.66
2023-02-28T06:19:06.249Z,1.66
2023-02-28T06:19:39.846Z,1.64
2023-02-28T06:20:13.911Z,1.64
2023-02-28T06:20:45.797Z,1.62
2023-02-28T06:21:17.451Z,1.63
2023-02-28T06:21:51.868Z,1.66
2023-02-28T06:22:23.560Z,1.66
2023-02-28T06:22:56.976Z,1.66
2023-02-28T06:23:28.920Z,1.67
2023-02-28T06:24:00.754Z,1.67
2023-02-28T06:24:32.424Z,1.69
2023-02-28T06:25:06.350Z,1.68
2023-02-28T06:25:38.051Z,1.71
2023-02-28T06:26:09.704Z,1.70
2023-02-28T06:26:41.620Z,1.69
2023-02-28T06:27:13.353Z,1.67
2023-02-28T06:27:45.083Z,1.66
2023-02-28T06:28:16.757Z,1.66
2023-02-28T06:28:49.154Z,1.64
2023-02-28T06:29:20.854Z,1.63
2023-02-28T06:29:56.700Z,1.64
2023-02-28T06:30:31.052Z,1.71
2023-02-28T06:31:11.033Z,1.78
2023-02-28T06:31:42.760Z,1.80
2023-02-28T06:32:14.476Z,1.76
2023-02-28T06:32:46.141Z,1.73
2023-02-28T06:33:17.787Z,1.74
2023-02-28T06:33:49.895Z,1.73
2023-02-28T06:34:21.564Z,2.11
2023-02-28T06:34:54.061Z,2.05
2023-02-28T06:35:25.938Z,1.97
2023-02-28T06:35:57.741Z,1.92
2023-02-28T06:36:29.498Z,1.89
2023-02-28T06:37:03.287Z,1.87
2023-02-28T06:37:35.000Z,1.87
2023-02-28T06:38:06.657Z,1.87
2023-02-28T06:38:39.354Z,1.85
2023-02-28T06:39:11.105Z,1.83
2023-02-28T06:39:42.835Z,1.84
2023-02-28T06:40:14.775Z,1.84
2023-02-28T06:40:54.518Z,1.85
2023-02-28T06:41:27.839Z,1.87
2023-02-28T06:42:00.001Z,1.84
2023-02-28T06:42:31.939Z,1.85
2023-02-28T06:43:04.319Z,1.87
2023-02-28T06:43:41.835Z,1.87
2023-02-28T06:44:15.201Z,1.87
2023-02-28T06:44:46.824Z,1.87
2023-02-28T06:45:18.605Z,1.83
2023-02-28T06:45:50.434Z,1.87
2023-02-28T06:46:22.358Z,1.88
2023-02-28T06:46:54.413Z,1.89
2023-02-28T06:47:26.068Z,1.88
2023-02-28T06:47:57.700Z,1.92
2023-02-28T06:48:29.333Z,1.91
2023-02-28T06:49:01.055Z,1.90
2023-02-28T06:49:34.353Z,1.90
2023-02-28T06:50:07.721Z,1.92
2023-02-28T06:50:39.527Z,1.88
2023-02-28T06:51:15.143Z,1.91
2023-02-28T06:51:46.872Z,1.93
2023-02-28T06:52:18.519Z,1.92
2023-02-28T06:52:54.877Z,1.89
2023-02-28T06:53:26.538Z,1.91
2023-02-28T06:53:58.177Z,1.92
2023-02-28T06:54:29.821Z,1.94
2023-02-28T06:55:01.781Z,1.97
2023-02-28T06:55:33.490Z,1.97
2023-02-28T06:56:07.366Z,1.98
2023-02-28T06:56:39.284Z,2.01
2023-02-28T06:57:10.945Z,2.03
2023-02-28T06:57:42.597Z,2.05
2023-02-28T06:58:19.726Z,2.05
2023-02-28T06:58:52.705Z,2.05
2023-02-28T06:59:24.343Z,2.05
2023-02-28T06:59:56.029Z,2.06
2023-02-28T07:00:27.824Z,2.06
2023-02-28T07:00:59.489Z,2.03
2023-02-28T07:01:33.179Z,2.04
2023-02-28T07:02:07.432Z,2.05
2023-02-28T07:02:39.352Z,2.05
2023-02-28T07:03:12.921Z,2.05
2023-02-28T07:03:44.562Z,2.05
2023-02-28T07:04:16.269Z,2.04
2023-02-28T07:04:47.981Z,2.01
2023-02-28T07:05:19.768Z,2.00
2023-02-28T07:05:51.872Z,2.01
2023-02-28T07:06:23.842Z,2.04
2023-02-28T07:06:57.892Z,2.04
2023-02-28T07:07:29.543Z,2.06
2023-02-28T07:08:01.303Z,2.03
2023-02-28T07:08:33.894Z,2.05
2023-02-28T07:09:06.076Z,2.05
2023-02-28T07:09:37.731Z,2.04
2023-02-28T07:10:10.200Z,2.03
2023-02-28T07:10:42.353Z,2.00
2023-02-28T07:11:14.021Z,2.01
2023-02-28T07:11:45.654Z,2.07
2023-02-28T07:12:17.680Z,2.05
2023-02-28T07:12:49.347Z,2.04
2023-02-28T07:13:21.441Z,2.06
2023-02-28T07:13:56.806Z,2.07
2023-02-28T07:14:28.446Z,2.08
2023-02-28T07:15:00.048Z,2.11
2023-02-28T07:15:31.926Z,2.11
2023-02-28T07:16:06.645Z,2.14
2023-02-28T07:16:38.329Z,2.16
2023-02-28T07:17:12.982Z,2.16
2023-02-28T07:17:44.701Z,2.21
2023-02-28T07:18:16.333Z,2.31
2023-02-28T07:18:48.393Z,2.45
2023-02-28T07:19:20.036Z,2.54
2023-02-28T07:19:51.676Z,2.64
2023-02-28T07:20:24.215Z,2.68
2023-02-28T07:20:56.247Z,2.75
2023-02-28T07:21:28.261Z,2.76
2023-02-28T07:22:00.303Z,2.81
2023-02-28T07:22:31.973Z,2.87
2023-02-28T07:23:03.605Z,2.88
2023-02-28T07:23:36.413Z,2.90
2023-02-28T07:24:08.225Z,2.91
2023-02-28T07:24:40.488Z,2.91
2023-02-28T07:25:12.180Z,2.95
2023-02-28T07:25:43.904Z,2.99
2023-02-28T07:26:18.483Z,2.98
2023-02-28T07:26:50.162Z,2.95
2023-02-28T07:27:26.449Z,2.97
2023-02-28T07:28:00.050Z,3.01
2023-02-28T07:28:31.788Z,3.05
2023-02-28T07:29:03.498Z,3.12
2023-02-28T07:29:35.150Z,3.17
2023-02-28T07:30:07.618Z,3.17
2023-02-28T07:30:39.772Z,3.18
2023-02-28T07:31:12.939Z,3.22
2023-02-28T07:31:44.775Z,3.25
2023-02-28T07:32:17.027Z,3.27
2023-02-28T07:32:49.122Z,3.47
2023-02-28T07:33:20.782Z,4.01
2023-02-28T07:33:52.445Z,4.19
2023-02-28T07:34:24.192Z,4.51
2023-02-28T07:34:56.076Z,4.27
2023-02-28T07:35:27.838Z,4.13
2023-02-28T07:36:08.437Z,4.08
2023-02-28T07:36:40.089Z,4.01
2023-02-28T07:37:12.212Z,4.10
2023-02-28T07:37:44.044Z,4.18
2023-02-28T07:38:16.009Z,4.15
2023-02-28T07:38:51.687Z,4.12
2023-02-28T07:39:23.444Z,4.12
2023-02-28T07:39:55.078Z,4.18
2023-02-28T07:40:27.580Z,4.13
2023-02-28T07:40:59.215Z,4.19
2023-02-28T07:41:34.060Z,4.20
2023-02-28T07:42:07.330Z,4.14
2023-02-28T07:42:40.144Z,4.06
2023-02-28T07:43:11.823Z,4.07
2023-02-28T07:43:43.852Z,4.13
2023-02-28T07:44:16.248Z,4.02
2023-02-28T07:44:47.903Z,4.04
2023-02-28T07:45:20.444Z,4.11
2023-02-28T07:45:52.068Z,4.12
2023-02-28T07:46:23.828Z,4.16
2023-02-28T07:46:55.502Z,4.18
2023-02-28T07:47:27.557Z,4.27